sensor_id;sensor_type;location;lat;lon;timestamp;P1;durP1;ratioP1;P2;durP2;ratioP2
45232;SDS011;30969;51.052;17.056;2022-11-20T00:02:30;61.08;;;29.83;;
45232;SDS011;30969;51.052;17.056;2022-11-20T00:07:34;68.93;;;30.75;;
45232;SDS011;30969;51.052;17.056;2022-11-20T00:12:39;87.30;;;41.50;;
45232;SDS011;30969;51.052;17.056;2022-11-20T00:17:43;92.95;;;40.33;;
45232;SDS011;30969;51.052;17.056;2022-11-20T00:22:46;73.60;;;32.70;;
45232;SDS011;30969;51.052;17.056;2022-11-20T00:27:51;59.85;;;29.50;;
45232;SDS011;30969;51.052;17.056;2022-11-20T00:32:56;75.57;;;35.15;;
45232;SDS011;30969;51.052;17.056;2022-11-20T00:37:59;66.60;;;29.75;;
45232;SDS011;30969;51.052;17.056;2022-11-20T00:43:04;64.75;;;27.23;;
45232;SDS011;30969;51.052;17.056;2022-11-20T00:48:08;60.42;;;27.40;;
45232;SDS011;30969;51.052;17.056;2022-11-20T00:53:11;59.05;;;26.10;;
45232;SDS011;30969;51.052;17.056;2022-11-20T00:58:16;55.83;;;25.23;;
45232;SDS011;30969;51.052;17.056;2022-11-20T01:03:20;63.33;;;26.67;;
45232;SDS011;30969;51.052;17.056;2022-11-20T01:08:29;74.60;;;32.05;;
45232;SDS011;30969;51.052;17.056;2022-11-20T01:13:35;66.30;;;29.42;;
45232;SDS011;30969;51.052;17.056;2022-11-20T01:18:43;63.05;;;30.00;;
45232;SDS011;30969;51.052;17.056;2022-11-20T01:23:48;92.30;;;35.83;;
45232;SDS011;30969;51.052;17.056;2022-11-20T01:28:54;148.70;;;51.28;;
45232;SDS011;30969;51.052;17.056;2022-11-20T01:33:59;129.10;;;46.95;;
45232;SDS011;30969;51.052;17.056;2022-11-20T01:39:04;94.05;;;37.17;;
45232;SDS011;30969;51.052;17.056;2022-11-20T01:44:12;64.25;;;28.50;;
45232;SDS011;30969;51.052;17.056;2022-11-20T01:49:18;71.53;;;31.48;;
45232;SDS011;30969;51.052;17.056;2022-11-20T01:54:25;74.68;;;29.63;;
45232;SDS011;30969;51.052;17.056;2022-11-20T01:59:35;70.38;;;28.15;;
45232;SDS011;30969;51.052;17.056;2022-11-20T02:04:43;72.43;;;30.60;;
45232;SDS011;30969;51.052;17.056;2022-11-20T02:09:47;68.82;;;26.52;;
45232;SDS011;30969;51.052;17.056;2022-11-20T02:14:59;46.13;;;21.13;;
45232;SDS011;30969;51.052;17.056;2022-11-20T02:20:04;45.92;;;22.98;;
45232;SDS011;30969;51.052;17.056;2022-11-20T02:25:10;42.05;;;18.67;;
45232;SDS011;30969;51.052;17.056;2022-11-20T02:30:14;37.22;;;18.80;;
45232;SDS011;30969;51.052;17.056;2022-11-20T02:35:39;47.53;;;21.98;;
45232;SDS011;30969;51.052;17.056;2022-11-20T02:40:46;39.88;;;19.17;;
45232;SDS011;30969;51.052;17.056;2022-11-20T02:45:56;41.83;;;20.45;;
45232;SDS011;30969;51.052;17.056;2022-11-20T02:50:59;43.95;;;20.17;;
45232;SDS011;30969;51.052;17.056;2022-11-20T02:56:05;49.75;;;22.20;;
45232;SDS011;30969;51.052;17.056;2022-11-20T03:01:09;39.92;;;20.55;;
45232;SDS011;30969;51.052;17.056;2022-11-20T03:06:13;45.63;;;20.52;;
45232;SDS011;30969;51.052;17.056;2022-11-20T03:11:18;47.72;;;21.02;;
45232;SDS011;30969;51.052;17.056;2022-11-20T03:16:22;40.42;;;19.95;;
45232;SDS011;30969;51.052;17.056;2022-11-20T03:21:26;39.58;;;19.88;;
45232;SDS011;30969;51.052;17.056;2022-11-20T03:26:31;42.10;;;19.13;;
45232;SDS011;30969;51.052;17.056;2022-11-20T03:31:35;39.83;;;19.70;;
45232;SDS011;30969;51.052;17.056;2022-11-20T03:36:42;42.10;;;19.20;;
45232;SDS011;30969;51.052;17.056;2022-11-20T03:41:47;48.92;;;21.45;;
45232;SDS011;30969;51.052;17.056;2022-11-20T03:46:50;42.20;;;20.25;;
45232;SDS011;30969;51.052;17.056;2022-11-20T03:51:54;38.88;;;18.90;;
45232;SDS011;30969;51.052;17.056;2022-11-20T03:56:58;43.47;;;20.25;;
45232;SDS011;30969;51.052;17.056;2022-11-20T04:02:02;40.92;;;18.92;;
45232;SDS011;30969;51.052;17.056;2022-11-20T04:07:05;37.80;;;19.05;;
45232;SDS011;30969;51.052;17.056;2022-11-20T04:12:10;49.78;;;22.33;;
45232;SDS011;30969;51.052;17.056;2022-11-20T04:17:13;50.67;;;21.75;;
45232;SDS011;30969;51.052;17.056;2022-11-20T04:22:17;51.78;;;24.10;;
45232;SDS011;30969;51.052;17.056;2022-11-20T04:27:22;51.17;;;24.40;;
45232;SDS011;30969;51.052;17.056;2022-11-20T04:32:25;55.72;;;24.45;;
45232;SDS011;30969;51.052;17.056;2022-11-20T04:37:29;52.65;;;23.92;;
45232;SDS011;30969;51.052;17.056;2022-11-20T04:42:33;50.28;;;24.48;;
45232;SDS011;30969;51.052;17.056;2022-11-20T04:47:37;52.85;;;24.70;;
45232;SDS011;30969;51.052;17.056;2022-11-20T04:52:40;54.42;;;25.20;;
45232;SDS011;30969;51.052;17.056;2022-11-20T04:57:45;51.05;;;24.48;;
45232;SDS011;30969;51.052;17.056;2022-11-20T05:02:52;49.47;;;24.20;;
45232;SDS011;30969;51.052;17.056;2022-11-20T05:07:55;52.83;;;24.70;;
45232;SDS011;30969;51.052;17.056;2022-11-20T05:13:01;53.00;;;24.00;;
45232;SDS011;30969;51.052;17.056;2022-11-20T05:18:04;53.10;;;25.73;;
45232;SDS011;30969;51.052;17.056;2022-11-20T05:23:08;52.40;;;25.75;;
45232;SDS011;30969;51.052;17.056;2022-11-20T05:28:14;51.33;;;26.55;;
45232;SDS011;30969;51.052;17.056;2022-11-20T05:33:17;58.25;;;29.10;;
45232;SDS011;30969;51.052;17.056;2022-11-20T05:38:21;63.15;;;28.45;;
45232;SDS011;30969;51.052;17.056;2022-11-20T05:43:25;58.65;;;28.55;;
45232;SDS011;30969;51.052;17.056;2022-11-20T05:48:29;62.65;;;29.42;;
45232;SDS011;30969;51.052;17.056;2022-11-20T05:53:33;62.65;;;26.45;;
45232;SDS011;30969;51.052;17.056;2022-11-20T05:58:38;65.45;;;28.85;;
45232;SDS011;30969;51.052;17.056;2022-11-20T06:03:43;60.20;;;27.48;;
45232;SDS011;30969;51.052;17.056;2022-11-20T06:08:49;65.65;;;29.65;;
45232;SDS011;30969;51.052;17.056;2022-11-20T06:13:54;61.67;;;29.42;;
45232;SDS011;30969;51.052;17.056;2022-11-20T06:18:58;56.75;;;28.58;;
45232;SDS011;30969;51.052;17.056;2022-11-20T06:24:01;65.43;;;29.13;;
45232;SDS011;30969;51.052;17.056;2022-11-20T06:29:06;60.53;;;29.52;;
45232;SDS011;30969;51.052;17.056;2022-11-20T06:34:10;52.72;;;26.10;;
45232;SDS011;30969;51.052;17.056;2022-11-20T06:39:14;65.45;;;27.60;;
45232;SDS011;30969;51.052;17.056;2022-11-20T06:44:18;59.67;;;28.83;;
45232;SDS011;30969;51.052;17.056;2022-11-20T06:49:22;60.47;;;27.33;;
45232;SDS011;30969;51.052;17.056;2022-11-20T06:54:26;62.30;;;28.50;;
45232;SDS011;30969;51.052;17.056;2022-11-20T06:59:31;63.55;;;30.65;;
45232;SDS011;30969;51.052;17.056;2022-11-20T07:04:35;65.13;;;29.80;;
45232;SDS011;30969;51.052;17.056;2022-11-20T07:09:38;64.68;;;30.90;;
45232;SDS011;30969;51.052;17.056;2022-11-20T07:14:43;72.07;;;36.92;;
45232;SDS011;30969;51.052;17.056;2022-11-20T07:19:47;73.85;;;34.55;;
45232;SDS011;30969;51.052;17.056;2022-11-20T07:24:50;63.90;;;31.60;;
45232;SDS011;30969;51.052;17.056;2022-11-20T07:29:55;68.25;;;30.60;;
45232;SDS011;30969;51.052;17.056;2022-11-20T07:34:58;66.30;;;31.13;;
45232;SDS011;30969;51.052;17.056;2022-11-20T07:40:02;61.40;;;29.60;;
45232;SDS011;30969;51.052;17.056;2022-11-20T07:45:08;66.80;;;29.77;;
45232;SDS011;30969;51.052;17.056;2022-11-20T07:50:12;62.70;;;28.88;;
45232;SDS011;30969;51.052;17.056;2022-11-20T07:55:16;57.55;;;28.52;;
45232;SDS011;30969;51.052;17.056;2022-11-20T08:00:21;60.28;;;28.95;;
45232;SDS011;30969;51.052;17.056;2022-11-20T08:05:25;58.17;;;25.70;;
45232;SDS011;30969;51.052;17.056;2022-11-20T08:10:28;51.50;;;24.70;;
45232;SDS011;30969;51.052;17.056;2022-11-20T08:15:33;49.35;;;21.60;;
45232;SDS011;30969;51.052;17.056;2022-11-20T08:20:38;49.35;;;22.67;;
45232;SDS011;30969;51.052;17.056;2022-11-20T08:25:41;51.70;;;24.55;;
45232;SDS011;30969;51.052;17.056;2022-11-20T08:30:46;42.22;;;20.80;;
45232;SDS011;30969;51.052;17.056;2022-11-20T08:35:49;45.78;;;21.75;;
45232;SDS011;30969;51.052;17.056;2022-11-20T08:40:55;39.95;;;20.83;;
45232;SDS011;30969;51.052;17.056;2022-11-20T08:46:18;42.65;;;20.70;;
45232;SDS011;30969;51.052;17.056;2022-11-20T08:51:22;41.38;;;20.45;;
45232;SDS011;30969;51.052;17.056;2022-11-20T08:56:25;35.20;;;17.73;;
45232;SDS011;30969;51.052;17.056;2022-11-20T09:01:30;36.55;;;18.05;;
45232;SDS011;30969;51.052;17.056;2022-11-20T09:06:34;36.33;;;17.60;;
45232;SDS011;30969;51.052;17.056;2022-11-20T09:11:37;35.78;;;18.48;;
45232;SDS011;30969;51.052;17.056;2022-11-20T09:16:42;35.85;;;18.30;;
45232;SDS011;30969;51.052;17.056;2022-11-20T09:21:47;36.95;;;17.85;;
45232;SDS011;30969;51.052;17.056;2022-11-20T09:26:51;42.15;;;19.85;;
45232;SDS011;30969;51.052;17.056;2022-11-20T09:31:56;35.58;;;18.00;;
45232;SDS011;30969;51.052;17.056;2022-11-20T09:36:59;34.80;;;17.90;;
45232;SDS011;30969;51.052;17.056;2022-11-20T09:42:12;32.42;;;16.75;;
45232;SDS011;30969;51.052;17.056;2022-11-20T09:47:30;36.00;;;17.02;;
45232;SDS011;30969;51.052;17.056;2022-11-20T09:52:46;40.10;;;17.80;;
45232;SDS011;30969;51.052;17.056;2022-11-20T09:57:55;38.85;;;18.35;;
45232;SDS011;30969;51.052;17.056;2022-11-20T10:03:03;38.20;;;19.00;;
45232;SDS011;30969;51.052;17.056;2022-11-20T10:08:16;33.83;;;17.45;;
45232;SDS011;30969;51.052;17.056;2022-11-20T10:13:27;29.58;;;15.60;;
45232;SDS011;30969;51.052;17.056;2022-11-20T10:18:44;31.80;;;16.63;;
45232;SDS011;30969;51.052;17.056;2022-11-20T10:24:02;31.58;;;16.77;;
45232;SDS011;30969;51.052;17.056;2022-11-20T10:29:21;29.83;;;16.38;;
45232;SDS011;30969;51.052;17.056;2022-11-20T10:34:33;33.55;;;16.13;;
45232;SDS011;30969;51.052;17.056;2022-11-20T10:39:48;29.13;;;15.30;;
45232;SDS011;30969;51.052;17.056;2022-11-20T10:44:55;32.60;;;15.98;;
45232;SDS011;30969;51.052;17.056;2022-11-20T10:50:10;36.13;;;18.95;;
45232;SDS011;30969;51.052;17.056;2022-11-20T10:55:25;32.75;;;17.17;;
45232;SDS011;30969;51.052;17.056;2022-11-20T11:00:35;28.08;;;15.52;;
45232;SDS011;30969;51.052;17.056;2022-11-20T11:05:42;27.75;;;14.27;;
45232;SDS011;30969;51.052;17.056;2022-11-20T11:10:52;33.85;;;17.63;;
45232;SDS011;30969;51.052;17.056;2022-11-20T11:15:59;30.20;;;16.20;;
45232;SDS011;30969;51.052;17.056;2022-11-20T11:21:04;27.05;;;14.95;;
45232;SDS011;30969;51.052;17.056;2022-11-20T11:26:18;27.98;;;14.52;;
45232;SDS011;30969;51.052;17.056;2022-11-20T11:31:23;25.52;;;13.55;;
45232;SDS011;30969;51.052;17.056;2022-11-20T11:36:29;24.30;;;13.38;;
45232;SDS011;30969;51.052;17.056;2022-11-20T11:41:33;28.40;;;14.07;;
45232;SDS011;30969;51.052;17.056;2022-11-20T11:46:37;23.20;;;14.15;;
45232;SDS011;30969;51.052;17.056;2022-11-20T11:52:01;31.02;;;15.00;;
45232;SDS011;30969;51.052;17.056;2022-11-20T11:57:10;26.77;;;15.18;;
45232;SDS011;30969;51.052;17.056;2022-11-20T12:02:24;28.70;;;15.30;;
45232;SDS011;30969;51.052;17.056;2022-11-20T12:07:38;32.25;;;14.63;;
45232;SDS011;30969;51.052;17.056;2022-11-20T12:12:50;50.95;;;25.23;;
45232;SDS011;30969;51.052;17.056;2022-11-20T12:17:59;28.98;;;14.25;;
45232;SDS011;30969;51.052;17.056;2022-11-20T12:23:07;25.83;;;13.98;;
45232;SDS011;30969;51.052;17.056;2022-11-20T12:28:28;23.63;;;12.15;;
45232;SDS011;30969;51.052;17.056;2022-11-20T12:33:48;23.55;;;12.23;;
45232;SDS011;30969;51.052;17.056;2022-11-20T12:39:02;21.58;;;12.20;;
45232;SDS011;30969;51.052;17.056;2022-11-20T12:44:24;21.95;;;11.43;;
45232;SDS011;30969;51.052;17.056;2022-11-20T12:50:06;20.00;;;10.77;;
45232;SDS011;30969;51.052;17.056;2022-11-20T12:55:20;22.50;;;11.65;;
45232;SDS011;30969;51.052;17.056;2022-11-20T13:00:28;24.67;;;12.57;;
45232;SDS011;30969;51.052;17.056;2022-11-20T13:05:37;18.98;;;10.45;;
45232;SDS011;30969;51.052;17.056;2022-11-20T13:10:56;19.13;;;11.05;;
45232;SDS011;30969;51.052;17.056;2022-11-20T13:16:04;17.08;;;9.30;;
45232;SDS011;30969;51.052;17.056;2022-11-20T13:21:15;20.95;;;10.15;;
45232;SDS011;30969;51.052;17.056;2022-11-20T13:26:22;18.08;;;9.93;;
45232;SDS011;30969;51.052;17.056;2022-11-20T13:31:30;18.05;;;10.23;;
45232;SDS011;30969;51.052;17.056;2022-11-20T13:36:35;19.58;;;10.48;;
45232;SDS011;30969;51.052;17.056;2022-11-20T13:41:40;20.70;;;11.45;;
45232;SDS011;30969;51.052;17.056;2022-11-20T13:46:44;21.40;;;11.65;;
45232;SDS011;30969;51.052;17.056;2022-11-20T13:51:50;19.92;;;10.60;;
45232;SDS011;30969;51.052;17.056;2022-11-20T13:57:01;17.67;;;10.68;;
45232;SDS011;30969;51.052;17.056;2022-11-20T14:02:16;19.25;;;10.65;;
45232;SDS011;30969;51.052;17.056;2022-11-20T14:07:23;19.77;;;10.77;;
45232;SDS011;30969;51.052;17.056;2022-11-20T14:12:33;19.77;;;11.70;;
45232;SDS011;30969;51.052;17.056;2022-11-20T14:17:38;20.20;;;11.35;;
45232;SDS011;30969;51.052;17.056;2022-11-20T14:22:47;23.13;;;12.70;;
45232;SDS011;30969;51.052;17.056;2022-11-20T14:27:53;19.92;;;10.77;;
45232;SDS011;30969;51.052;17.056;2022-11-20T14:33:00;22.17;;;12.20;;
45232;SDS011;30969;51.052;17.056;2022-11-20T14:38:08;21.15;;;11.15;;
45232;SDS011;30969;51.052;17.056;2022-11-20T14:43:20;23.52;;;12.65;;
45232;SDS011;30969;51.052;17.056;2022-11-20T14:48:28;28.95;;;15.18;;
45232;SDS011;30969;51.052;17.056;2022-11-20T14:53:34;40.38;;;20.83;;
45232;SDS011;30969;51.052;17.056;2022-11-20T14:58:39;33.65;;;19.67;;
45232;SDS011;30969;51.052;17.056;2022-11-20T15:03:42;30.27;;;16.25;;
45232;SDS011;30969;51.052;17.056;2022-11-20T15:08:50;31.63;;;15.43;;
45232;SDS011;30969;51.052;17.056;2022-11-20T15:13:55;22.45;;;13.20;;
45232;SDS011;30969;51.052;17.056;2022-11-20T15:18:59;28.42;;;14.93;;
45232;SDS011;30969;51.052;17.056;2022-11-20T15:24:19;28.25;;;15.00;;
45232;SDS011;30969;51.052;17.056;2022-11-20T15:29:25;31.40;;;16.77;;
45232;SDS011;30969;51.052;17.056;2022-11-20T15:34:28;33.13;;;17.08;;
45232;SDS011;30969;51.052;17.056;2022-11-20T15:39:32;29.88;;;17.10;;
45232;SDS011;30969;51.052;17.056;2022-11-20T15:44:37;33.08;;;17.98;;
45232;SDS011;30969;51.052;17.056;2022-11-20T15:49:40;40.42;;;18.45;;
45232;SDS011;30969;51.052;17.056;2022-11-20T15:54:44;45.05;;;20.98;;
45232;SDS011;30969;51.052;17.056;2022-11-20T15:59:48;47.05;;;23.63;;
45232;SDS011;30969;51.052;17.056;2022-11-20T16:04:52;44.22;;;22.95;;
45232;SDS011;30969;51.052;17.056;2022-11-20T16:09:55;43.75;;;21.40;;
45232;SDS011;30969;51.052;17.056;2022-11-20T16:15:00;44.28;;;21.38;;
45232;SDS011;30969;51.052;17.056;2022-11-20T16:20:29;39.10;;;19.27;;
45232;SDS011;30969;51.052;17.056;2022-11-20T16:25:33;41.58;;;21.67;;
45232;SDS011;30969;51.052;17.056;2022-11-20T16:30:38;47.22;;;23.55;;
45232;SDS011;30969;51.052;17.056;2022-11-20T16:35:42;48.30;;;24.80;;
45232;SDS011;30969;51.052;17.056;2022-11-20T16:40:46;59.08;;;26.52;;
45232;SDS011;30969;51.052;17.056;2022-11-20T16:45:51;50.58;;;25.27;;
45232;SDS011;30969;51.052;17.056;2022-11-20T16:50:54;51.00;;;25.38;;
45232;SDS011;30969;51.052;17.056;2022-11-20T16:56:01;53.95;;;26.58;;
45232;SDS011;30969;51.052;17.056;2022-11-20T17:01:13;52.47;;;26.33;;
45232;SDS011;30969;51.052;17.056;2022-11-20T17:06:19;53.88;;;27.30;;
45232;SDS011;30969;51.052;17.056;2022-11-20T17:11:23;51.30;;;22.75;;
45232;SDS011;30969;51.052;17.056;2022-11-20T17:16:32;48.85;;;24.05;;
45232;SDS011;30969;51.052;17.056;2022-11-20T17:21:36;54.53;;;26.85;;
45232;SDS011;30969;51.052;17.056;2022-11-20T17:26:43;56.22;;;26.27;;
45232;SDS011;30969;51.052;17.056;2022-11-20T17:31:52;54.42;;;25.23;;
45232;SDS011;30969;51.052;17.056;2022-11-20T17:36:56;57.10;;;26.42;;
45232;SDS011;30969;51.052;17.056;2022-11-20T17:42:00;56.45;;;27.17;;
45232;SDS011;30969;51.052;17.056;2022-11-20T17:47:22;61.08;;;28.85;;
45232;SDS011;30969;51.052;17.056;2022-11-20T17:52:26;55.58;;;26.38;;
45232;SDS011;30969;51.052;17.056;2022-11-20T17:57:29;53.05;;;25.35;;
45232;SDS011;30969;51.052;17.056;2022-11-20T18:02:51;46.50;;;23.85;;
45232;SDS011;30969;51.052;17.056;2022-11-20T18:07:55;45.05;;;23.42;;
45232;SDS011;30969;51.052;17.056;2022-11-20T18:12:59;43.03;;;21.85;;
45232;SDS011;30969;51.052;17.056;2022-11-20T18:18:04;46.83;;;22.40;;
45232;SDS011;30969;51.052;17.056;2022-11-20T18:23:08;51.50;;;24.65;;
45232;SDS011;30969;51.052;17.056;2022-11-20T18:28:11;59.10;;;30.95;;
45232;SDS011;30969;51.052;17.056;2022-11-20T18:33:16;64.95;;;29.70;;
45232;SDS011;30969;51.052;17.056;2022-11-20T18:38:26;112.18;;;47.80;;
45232;SDS011;30969;51.052;17.056;2022-11-20T18:43:29;94.15;;;44.10;;
45232;SDS011;30969;51.052;17.056;2022-11-20T18:48:52;79.30;;;35.55;;
45232;SDS011;30969;51.052;17.056;2022-11-20T18:53:55;63.78;;;29.15;;
45232;SDS011;30969;51.052;17.056;2022-11-20T18:59:00;79.07;;;36.38;;
45232;SDS011;30969;51.052;17.056;2022-11-20T19:04:06;62.95;;;30.13;;
45232;SDS011;30969;51.052;17.056;2022-11-20T19:09:11;62.63;;;29.50;;
45232;SDS011;30969;51.052;17.056;2022-11-20T19:14:15;57.85;;;28.27;;
45232;SDS011;30969;51.052;17.056;2022-11-20T19:19:20;67.75;;;33.25;;
45232;SDS011;30969;51.052;17.056;2022-11-20T19:24:26;66.90;;;31.77;;
45232;SDS011;30969;51.052;17.056;2022-11-20T19:29:30;66.05;;;34.30;;
45232;SDS011;30969;51.052;17.056;2022-11-20T19:34:35;58.45;;;28.75;;
45232;SDS011;30969;51.052;17.056;2022-11-20T19:39:39;63.60;;;31.33;;
45232;SDS011;30969;51.052;17.056;2022-11-20T19:44:43;63.08;;;33.15;;
45232;SDS011;30969;51.052;17.056;2022-11-20T19:49:48;64.40;;;31.38;;
45232;SDS011;30969;51.052;17.056;2022-11-20T19:54:51;76.82;;;36.17;;
45232;SDS011;30969;51.052;17.056;2022-11-20T19:59:55;67.00;;;33.97;;
45232;SDS011;30969;51.052;17.056;2022-11-20T20:05:00;64.00;;;32.00;;
45232;SDS011;30969;51.052;17.056;2022-11-20T20:10:04;58.83;;;29.13;;
45232;SDS011;30969;51.052;17.056;2022-11-20T20:15:08;67.10;;;31.95;;
45232;SDS011;30969;51.052;17.056;2022-11-20T20:20:14;64.63;;;30.98;;
45232;SDS011;30969;51.052;17.056;2022-11-20T20:25:17;62.10;;;29.58;;
45232;SDS011;30969;51.052;17.056;2022-11-20T20:30:21;59.35;;;29.65;;
45232;SDS011;30969;51.052;17.056;2022-11-20T20:35:26;67.75;;;31.33;;
45232;SDS011;30969;51.052;17.056;2022-11-20T20:40:30;65.47;;;31.55;;
45232;SDS011;30969;51.052;17.056;2022-11-20T20:45:33;60.75;;;29.42;;
45232;SDS011;30969;51.052;17.056;2022-11-20T20:50:38;65.05;;;32.05;;
45232;SDS011;30969;51.052;17.056;2022-11-20T20:55:42;59.33;;;30.10;;
45232;SDS011;30969;51.052;17.056;2022-11-20T21:06:04;58.78;;;26.90;;
45232;SDS011;30969;51.052;17.056;2022-11-20T21:11:09;54.97;;;28.35;;
45232;SDS011;30969;51.052;17.056;2022-11-20T21:16:14;63.40;;;31.38;;
45232;SDS011;30969;51.052;17.056;2022-11-20T21:21:23;63.45;;;32.00;;
45232;SDS011;30969;51.052;17.056;2022-11-20T21:26:45;74.20;;;33.75;;
45232;SDS011;30969;51.052;17.056;2022-11-20T21:31:50;66.20;;;32.47;;
45232;SDS011;30969;51.052;17.056;2022-11-20T21:36:56;72.63;;;36.50;;
45232;SDS011;30969;51.052;17.056;2022-11-20T21:41:59;78.38;;;36.28;;
45232;SDS011;30969;51.052;17.056;2022-11-20T21:47:03;68.85;;;32.50;;
45232;SDS011;30969;51.052;17.056;2022-11-20T21:52:08;72.35;;;33.28;;
45232;SDS011;30969;51.052;17.056;2022-11-20T21:57:11;70.70;;;33.63;;
45232;SDS011;30969;51.052;17.056;2022-11-20T22:02:15;81.55;;;40.30;;
45232;SDS011;30969;51.052;17.056;2022-11-20T22:07:21;89.82;;;41.58;;
45232;SDS011;30969;51.052;17.056;2022-11-20T22:12:24;90.13;;;44.25;;
45232;SDS011;30969;51.052;17.056;2022-11-20T22:17:28;89.65;;;43.20;;
45232;SDS011;30969;51.052;17.056;2022-11-20T22:22:50;93.57;;;41.70;;
45232;SDS011;30969;51.052;17.056;2022-11-20T22:27:54;86.50;;;42.60;;
45232;SDS011;30969;51.052;17.056;2022-11-20T22:32:57;89.40;;;41.05;;
45232;SDS011;30969;51.052;17.056;2022-11-20T22:38:02;83.60;;;40.63;;
45232;SDS011;30969;51.052;17.056;2022-11-20T22:43:06;89.70;;;41.35;;
45232;SDS011;30969;51.052;17.056;2022-11-20T22:48:09;79.85;;;39.53;;
45232;SDS011;30969;51.052;17.056;2022-11-20T22:53:14;81.75;;;41.10;;
45232;SDS011;30969;51.052;17.056;2022-11-20T22:58:18;90.53;;;41.63;;
45232;SDS011;30969;51.052;17.056;2022-11-20T23:03:21;85.97;;;41.13;;
45232;SDS011;30969;51.052;17.056;2022-11-20T23:08:26;87.18;;;40.85;;
45232;SDS011;30969;51.052;17.056;2022-11-20T23:13:30;93.47;;;41.53;;
45232;SDS011;30969;51.052;17.056;2022-11-20T23:18:34;82.72;;;39.80;;
45232;SDS011;30969;51.052;17.056;2022-11-20T23:23:40;87.20;;;39.50;;
45232;SDS011;30969;51.052;17.056;2022-11-20T23:28:44;87.93;;;39.70;;
45232;SDS011;30969;51.052;17.056;2022-11-20T23:33:48;88.63;;;40.85;;
45232;SDS011;30969;51.052;17.056;2022-11-20T23:38:53;96.63;;;42.45;;
45232;SDS011;30969;51.052;17.056;2022-11-20T23:43:57;108.97;;;46.88;;
45232;SDS011;30969;51.052;17.056;2022-11-20T23:49:01;113.38;;;46.70;;
45232;SDS011;30969;51.052;17.056;2022-11-20T23:54:05;116.15;;;50.83;;
45232;SDS011;30969;51.052;17.056;2022-11-20T23:59:09;121.15;;;51.08;;
